sensor_id;sensor_type;location;lat;lon;timestamp;pressure;altitude;pressure_sealevel;temperature;humidity
58821;BME280;70670;52.476;13.334;2023-12-28T00:01:45;100457.09;;;4.04;89.23
58821;BME280;70670;52.476;13.334;2023-12-28T00:04:10;100461.25;;;4.11;89.03
58821;BME280;70670;52.476;13.334;2023-12-28T00:06:36;100453.38;;;4.10;88.77
58821;BME280;70670;52.476;13.334;2023-12-28T00:09:01;100447.38;;;4.05;89.24
58821;BME280;70670;52.476;13.334;2023-12-28T00:11:27;100435.69;;;4.10;88.67
58821;BME280;70670;52.476;13.334;2023-12-28T00:13:52;100427.44;;;4.19;88.55
58821;BME280;70670;52.476;13.334;2023-12-28T00:16:18;100419.47;;;4.19;88.18
58821;BME280;70670;52.476;13.334;2023-12-28T00:18:43;100417.66;;;4.22;87.95
58821;BME280;70670;52.476;13.334;2023-12-28T00:21:09;100412.56;;;4.15;88.27
58821;BME280;70670;52.476;13.334;2023-12-28T00:23:34;100406.97;;;4.25;87.87
58821;BME280;70670;52.476;13.334;2023-12-28T00:26:00;100404.09;;;4.31;87.84
58821;BME280;70670;52.476;13.334;2023-12-28T00:28:26;100418.44;;;4.25;88.12
58821;BME280;70670;52.476;13.334;2023-12-28T00:30:51;100409.38;;;4.32;87.78
58821;BME280;70670;52.476;13.334;2023-12-28T00:33:17;100399.63;;;4.33;87.10
58821;BME280;70670;52.476;13.334;2023-12-28T00:35:42;100394.34;;;4.33;87.05
58821;BME280;70670;52.476;13.334;2023-12-28T00:38:08;100395.28;;;4.30;87.74
58821;BME280;70670;52.476;13.334;2023-12-28T00:40:33;100397.91;;;4.32;87.46
58821;BME280;70670;52.476;13.334;2023-12-28T00:42:59;100401.41;;;4.32;87.57
58821;BME280;70670;52.476;13.334;2023-12-28T00:45:24;100399.63;;;4.33;87.61
58821;BME280;70670;52.476;13.334;2023-12-28T00:47:50;100401.34;;;4.34;87.36
58821;BME280;70670;52.476;13.334;2023-12-28T00:50:17;100395.19;;;4.33;87.10
58821;BME280;70670;52.476;13.334;2023-12-28T00:52:42;100386.41;;;4.31;87.22
58821;BME280;70670;52.476;13.334;2023-12-28T00:55:08;100398.78;;;4.32;86.85
58821;BME280;70670;52.476;13.334;2023-12-28T00:57:34;100388.47;;;4.23;87.49
58821;BME280;70670;52.476;13.334;2023-12-28T00:59:59;100395.53;;;4.24;87.72
58821;BME280;70670;52.476;13.334;2023-12-28T01:02:25;100407.41;;;4.37;86.65
58821;BME280;70670;52.476;13.334;2023-12-28T01:04:50;100409.69;;;4.48;86.01
58821;BME280;70670;52.476;13.334;2023-12-28T01:07:16;100400.16;;;4.42;86.34
58821;BME280;70670;52.476;13.334;2023-12-28T01:09:41;100409.13;;;4.38;86.60
58821;BME280;70670;52.476;13.334;2023-12-28T01:12:06;100403.41;;;4.51;85.53
58821;BME280;70670;52.476;13.334;2023-12-28T01:14:32;100403.25;;;4.55;84.99
58821;BME280;70670;52.476;13.334;2023-12-28T01:16:58;100405.44;;;4.44;85.56
58821;BME280;70670;52.476;13.334;2023-12-28T01:19:23;100406.44;;;4.65;84.40
58821;BME280;70670;52.476;13.334;2023-12-28T01:21:49;100407.69;;;4.55;85.00
58821;BME280;70670;52.476;13.334;2023-12-28T01:24:15;100400.22;;;4.66;84.25
58821;BME280;70670;52.476;13.334;2023-12-28T01:26:40;100398.56;;;4.63;84.32
58821;BME280;70670;52.476;13.334;2023-12-28T01:29:05;100397.56;;;4.66;84.22
58821;BME280;70670;52.476;13.334;2023-12-28T01:31:31;100400.91;;;4.71;83.79
58821;BME280;70670;52.476;13.334;2023-12-28T01:33:56;100400.69;;;4.77;83.11
58821;BME280;70670;52.476;13.334;2023-12-28T01:36:22;100389.16;;;4.78;83.46
58821;BME280;70670;52.476;13.334;2023-12-28T01:38:47;100403.81;;;4.88;82.43
58821;BME280;70670;52.476;13.334;2023-12-28T01:41:13;100402.47;;;4.77;82.96
58821;BME280;70670;52.476;13.334;2023-12-28T01:43:40;100388.94;;;4.84;82.59
58821;BME280;70670;52.476;13.334;2023-12-28T01:46:06;100386.19;;;4.87;82.11
58821;BME280;70670;52.476;13.334;2023-12-28T01:48:33;100379.78;;;4.93;81.96
58821;BME280;70670;52.476;13.334;2023-12-28T01:50:59;100363.50;;;4.79;82.38
58821;BME280;70670;52.476;13.334;2023-12-28T01:53:25;100354.81;;;4.99;81.34
58821;BME280;70670;52.476;13.334;2023-12-28T01:55:51;100347.69;;;5.01;81.22
58821;BME280;70670;52.476;13.334;2023-12-28T01:58:17;100336.13;;;5.02;81.20
58821;BME280;70670;52.476;13.334;2023-12-28T02:00:43;100328.25;;;5.00;80.84
58821;BME280;70670;52.476;13.334;2023-12-28T02:03:10;100320.34;;;4.99;80.42
58821;BME280;70670;52.476;13.334;2023-12-28T02:05:36;100321.22;;;4.99;80.38
58821;BME280;70670;52.476;13.334;2023-12-28T02:08:01;100319.13;;;5.07;80.16
58821;BME280;70670;52.476;13.334;2023-12-28T02:10:27;100335.91;;;5.08;79.35
58821;BME280;70670;52.476;13.334;2023-12-28T02:12:53;100369.19;;;4.93;79.03
58821;BME280;70670;52.476;13.334;2023-12-28T02:15:19;100383.25;;;4.95;79.14
58821;BME280;70670;52.476;13.334;2023-12-28T02:17:47;100381.28;;;5.00;78.97
58821;BME280;70670;52.476;13.334;2023-12-28T02:20:14;100377.81;;;4.98;78.98
58821;BME280;70670;52.476;13.334;2023-12-28T02:22:40;100395.41;;;5.01;78.67
58821;BME280;70670;52.476;13.334;2023-12-28T02:25:09;100391.91;;;5.00;78.35
58821;BME280;70670;52.476;13.334;2023-12-28T02:27:41;100391.78;;;5.03;78.06
58821;BME280;70670;52.476;13.334;2023-12-28T02:30:07;100386.34;;;5.06;77.58
58821;BME280;70670;52.476;13.334;2023-12-28T02:32:40;100396.00;;;5.09;77.70
58821;BME280;70670;52.476;13.334;2023-12-28T02:35:16;100399.31;;;5.14;77.08
58821;BME280;70670;52.476;13.334;2023-12-28T02:37:42;100385.84;;;5.20;75.89
58821;BME280;70670;52.476;13.334;2023-12-28T02:40:09;100382.94;;;5.26;75.87
58821;BME280;70670;52.476;13.334;2023-12-28T02:42:34;100371.34;;;5.29;75.19
58821;BME280;70670;52.476;13.334;2023-12-28T02:45:00;100366.53;;;5.38;74.49
58821;BME280;70670;52.476;13.334;2023-12-28T02:47:25;100363.72;;;5.43;74.00
58821;BME280;70670;52.476;13.334;2023-12-28T02:49:51;100378.00;;;5.62;72.97
58821;BME280;70670;52.476;13.334;2023-12-28T02:52:16;100372.41;;;5.68;72.36
58821;BME280;70670;52.476;13.334;2023-12-28T02:54:42;100370.75;;;5.88;70.81
58821;BME280;70670;52.476;13.334;2023-12-28T02:57:07;100364.63;;;6.08;69.33
58821;BME280;70670;52.476;13.334;2023-12-28T02:59:32;100351.09;;;6.14;69.27
58821;BME280;70670;52.476;13.334;2023-12-28T03:01:58;100353.34;;;6.23;68.25
58821;BME280;70670;52.476;13.334;2023-12-28T03:04:23;100350.81;;;6.40;67.35
58821;BME280;70670;52.476;13.334;2023-12-28T03:06:49;100381.63;;;6.45;66.25
58821;BME280;70670;52.476;13.334;2023-12-28T03:09:14;100367.88;;;6.55;65.65
58821;BME280;70670;52.476;13.334;2023-12-28T03:11:40;100366.75;;;6.61;66.02
58821;BME280;70670;52.476;13.334;2023-12-28T03:14:05;100386.03;;;6.66;65.56
58821;BME280;70670;52.476;13.334;2023-12-28T03:16:30;100374.97;;;6.75;64.58
58821;BME280;70670;52.476;13.334;2023-12-28T03:18:56;100367.81;;;6.77;64.79
58821;BME280;70670;52.476;13.334;2023-12-28T03:21:21;100351.69;;;6.80;64.58
58821;BME280;70670;52.476;13.334;2023-12-28T03:23:47;100366.53;;;6.86;64.09
58821;BME280;70670;52.476;13.334;2023-12-28T03:26:12;100368.09;;;6.90;64.00
58821;BME280;70670;52.476;13.334;2023-12-28T03:28:39;100371.63;;;6.90;63.46
58821;BME280;70670;52.476;13.334;2023-12-28T03:31:05;100368.66;;;6.97;63.45
58821;BME280;70670;52.476;13.334;2023-12-28T03:33:31;100371.28;;;6.98;63.39
58821;BME280;70670;52.476;13.334;2023-12-28T03:35:56;100356.75;;;7.05;62.79
58821;BME280;70670;52.476;13.334;2023-12-28T03:38:22;100382.34;;;7.08;63.34
58821;BME280;70670;52.476;13.334;2023-12-28T03:40:47;100368.28;;;7.06;63.83
58821;BME280;70670;52.476;13.334;2023-12-28T03:43:15;100370.00;;;7.07;64.80
58821;BME280;70670;52.476;13.334;2023-12-28T03:45:40;100391.63;;;6.99;65.47
58821;BME280;70670;52.476;13.334;2023-12-28T03:48:06;100384.06;;;6.90;66.92
58821;BME280;70670;52.476;13.334;2023-12-28T03:50:31;100388.66;;;6.86;67.12
58821;BME280;70670;52.476;13.334;2023-12-28T03:52:57;100378.97;;;6.85;68.44
58821;BME280;70670;52.476;13.334;2023-12-28T03:55:23;100393.47;;;6.78;68.16
58821;BME280;70670;52.476;13.334;2023-12-28T03:57:49;100384.63;;;6.78;69.16
58821;BME280;70670;52.476;13.334;2023-12-28T04:00:16;100378.44;;;6.77;69.10
58821;BME280;70670;52.476;13.334;2023-12-28T04:02:42;100376.56;;;6.79;69.13
58821;BME280;70670;52.476;13.334;2023-12-28T04:05:07;100385.19;;;6.84;68.22
58821;BME280;70670;52.476;13.334;2023-12-28T04:07:32;100374.72;;;6.81;68.98
58821;BME280;70670;52.476;13.334;2023-12-28T04:09:58;100378.03;;;6.86;68.64
58821;BME280;70670;52.476;13.334;2023-12-28T04:12:24;100381.47;;;6.88;68.12
58821;BME280;70670;52.476;13.334;2023-12-28T04:14:49;100378.22;;;7.01;67.60
58821;BME280;70670;52.476;13.334;2023-12-28T04:17:14;100383.56;;;7.01;67.36
58821;BME280;70670;52.476;13.334;2023-12-28T04:19:40;100399.47;;;7.02;66.54
58821;BME280;70670;52.476;13.334;2023-12-28T04:22:05;100394.03;;;7.05;67.20
58821;BME280;70670;52.476;13.334;2023-12-28T04:24:31;100409.13;;;7.05;67.14
58821;BME280;70670;52.476;13.334;2023-12-28T04:26:56;100409.91;;;7.07;66.75
58821;BME280;70670;52.476;13.334;2023-12-28T04:29:22;100396.47;;;7.10;66.90
58821;BME280;70670;52.476;13.334;2023-12-28T04:31:47;100396.59;;;7.07;66.45
58821;BME280;70670;52.476;13.334;2023-12-28T04:34:13;100395.59;;;7.09;66.40
58821;BME280;70670;52.476;13.334;2023-12-28T04:36:42;100391.13;;;7.10;65.99
58821;BME280;70670;52.476;13.334;2023-12-28T04:39:08;100398.81;;;7.16;65.77
58821;BME280;70670;52.476;13.334;2023-12-28T04:41:33;100405.91;;;7.17;65.90
58821;BME280;70670;52.476;13.334;2023-12-28T04:43:59;100388.91;;;7.20;65.60
58821;BME280;70670;52.476;13.334;2023-12-28T04:46:24;100392.41;;;7.20;65.97
58821;BME280;70670;52.476;13.334;2023-12-28T04:48:50;100402.28;;;7.18;65.86
58821;BME280;70670;52.476;13.334;2023-12-28T04:51:15;100394.09;;;7.23;65.37
58821;BME280;70670;52.476;13.334;2023-12-28T04:53:40;100392.41;;;7.20;65.72
58821;BME280;70670;52.476;13.334;2023-12-28T04:56:06;100409.19;;;7.22;65.51
58821;BME280;70670;52.476;13.334;2023-12-28T04:58:31;100401.09;;;7.25;65.26
58821;BME280;70670;52.476;13.334;2023-12-28T05:00:57;100405.97;;;7.34;64.82
58821;BME280;70670;52.476;13.334;2023-12-28T05:03:22;100411.28;;;7.34;64.99
58821;BME280;70670;52.476;13.334;2023-12-28T05:05:48;100405.81;;;7.37;64.78
58821;BME280;70670;52.476;13.334;2023-12-28T05:08:14;100407.69;;;7.35;65.29
58821;BME280;70670;52.476;13.334;2023-12-28T05:10:39;100415.53;;;7.38;65.08
58821;BME280;70670;52.476;13.334;2023-12-28T05:13:05;100415.41;;;7.42;65.05
58821;BME280;70670;52.476;13.334;2023-12-28T05:15:30;100425.25;;;7.39;65.26
58821;BME280;70670;52.476;13.334;2023-12-28T05:17:55;100422.66;;;7.38;65.32
58821;BME280;70670;52.476;13.334;2023-12-28T05:20:21;100438.72;;;7.36;65.45
58821;BME280;70670;52.476;13.334;2023-12-28T05:22:46;100437.69;;;7.39;65.58
58821;BME280;70670;52.476;13.334;2023-12-28T05:25:12;100431.28;;;7.43;65.28
58821;BME280;70670;52.476;13.334;2023-12-28T05:27:37;100432.97;;;7.46;65.33
58821;BME280;70670;52.476;13.334;2023-12-28T05:30:03;100426.41;;;7.53;65.29
58821;BME280;70670;52.476;13.334;2023-12-28T05:32:29;100437.06;;;7.53;65.39
58821;BME280;70670;52.476;13.334;2023-12-28T05:34:54;100439.63;;;7.54;65.83
58821;BME280;70670;52.476;13.334;2023-12-28T05:37:20;100436.75;;;7.59;66.03
58821;BME280;70670;52.476;13.334;2023-12-28T05:39:45;100438.34;;;7.63;66.44
58821;BME280;70670;52.476;13.334;2023-12-28T05:42:10;100448.03;;;7.64;66.66
58821;BME280;70670;52.476;13.334;2023-12-28T05:44:36;100448.22;;;7.61;67.20
58821;BME280;70670;52.476;13.334;2023-12-28T05:47:01;100452.59;;;7.62;67.62
58821;BME280;70670;52.476;13.334;2023-12-28T05:49:29;100463.13;;;7.65;67.65
58821;BME280;70670;52.476;13.334;2023-12-28T05:51:55;100461.16;;;7.69;68.23
58821;BME280;70670;52.476;13.334;2023-12-28T05:54:21;100475.34;;;7.69;68.64
58821;BME280;70670;52.476;13.334;2023-12-28T05:56:46;100467.91;;;7.76;68.81
58821;BME280;70670;52.476;13.334;2023-12-28T05:59:12;100477.94;;;7.89;69.10
58821;BME280;70670;52.476;13.334;2023-12-28T06:01:43;100476.25;;;7.87;69.19
58821;BME280;70670;52.476;13.334;2023-12-28T06:04:09;100474.81;;;7.80;69.75
58821;BME280;70670;52.476;13.334;2023-12-28T06:06:34;100475.50;;;7.85;70.05
58821;BME280;70670;52.476;13.334;2023-12-28T06:09:01;100480.00;;;7.83;69.94
58821;BME280;70670;52.476;13.334;2023-12-28T06:11:28;100489.53;;;7.88;70.63
58821;BME280;70670;52.476;13.334;2023-12-28T06:13:54;100484.69;;;7.78;70.86
58821;BME280;70670;52.476;13.334;2023-12-28T06:16:19;100482.66;;;7.83;71.29
58821;BME280;70670;52.476;13.334;2023-12-28T06:18:45;100479.16;;;7.82;71.09
58821;BME280;70670;52.476;13.334;2023-12-28T06:21:10;100489.16;;;7.77;71.43
58821;BME280;70670;52.476;13.334;2023-12-28T06:23:36;100484.78;;;7.76;71.80
58821;BME280;70670;52.476;13.334;2023-12-28T06:26:05;100497.78;;;7.82;71.45
58821;BME280;70670;52.476;13.334;2023-12-28T06:28:31;100496.34;;;7.75;71.55
58821;BME280;70670;52.476;13.334;2023-12-28T06:30:57;100482.13;;;7.76;71.85
58821;BME280;70670;52.476;13.334;2023-12-28T06:33:26;100488.72;;;7.86;71.69
58821;BME280;70670;52.476;13.334;2023-12-28T06:35:52;100488.22;;;7.78;71.76
58821;BME280;70670;52.476;13.334;2023-12-28T06:38:18;100480.16;;;7.80;72.10
58821;BME280;70670;52.476;13.334;2023-12-28T06:40:43;100490.88;;;7.78;72.21
58821;BME280;70670;52.476;13.334;2023-12-28T06:43:09;100488.50;;;7.91;72.00
58821;BME280;70670;52.476;13.334;2023-12-28T06:45:34;100480.22;;;7.78;72.42
58821;BME280;70670;52.476;13.334;2023-12-28T06:48:00;100477.47;;;7.80;72.32
58821;BME280;70670;52.476;13.334;2023-12-28T06:50:25;100496.06;;;7.81;72.67
58821;BME280;70670;52.476;13.334;2023-12-28T06:52:51;100490.44;;;7.87;72.66
58821;BME280;70670;52.476;13.334;2023-12-28T06:55:16;100481.03;;;7.80;72.98
58821;BME280;70670;52.476;13.334;2023-12-28T06:57:42;100489.09;;;7.79;73.28
58821;BME280;70670;52.476;13.334;2023-12-28T07:00:07;100503.25;;;7.79;73.40
58821;BME280;70670;52.476;13.334;2023-12-28T07:02:33;100500.81;;;7.75;73.96
58821;BME280;70670;52.476;13.334;2023-12-28T07:04:58;100498.09;;;7.76;74.01
58821;BME280;70670;52.476;13.334;2023-12-28T07:07:24;100512.06;;;7.81;73.96
58821;BME280;70670;52.476;13.334;2023-12-28T07:09:50;100511.25;;;7.79;74.01
58821;BME280;70670;52.476;13.334;2023-12-28T07:12:15;100509.31;;;7.83;74.12
58821;BME280;70670;52.476;13.334;2023-12-28T07:14:41;100513.91;;;7.79;74.70
58821;BME280;70670;52.476;13.334;2023-12-28T07:17:06;100524.75;;;7.76;74.62
58821;BME280;70670;52.476;13.334;2023-12-28T07:19:32;100531.94;;;7.74;74.83
58821;BME280;70670;52.476;13.334;2023-12-28T07:21:57;100524.75;;;7.76;74.96
58821;BME280;70670;52.476;13.334;2023-12-28T07:24:23;100537.25;;;7.74;75.06
58821;BME280;70670;52.476;13.334;2023-12-28T07:26:48;100532.00;;;7.73;75.36
58821;BME280;70670;52.476;13.334;2023-12-28T07:29:14;100535.66;;;7.70;75.32
58821;BME280;70670;52.476;13.334;2023-12-28T07:31:39;100537.16;;;7.76;75.11
58821;BME280;70670;52.476;13.334;2023-12-28T07:34:05;100534.47;;;7.77;75.18
58821;BME280;70670;52.476;13.334;2023-12-28T07:36:31;100532.78;;;7.75;75.16
58821;BME280;70670;52.476;13.334;2023-12-28T07:38:56;100524.44;;;7.82;75.17
58821;BME280;70670;52.476;13.334;2023-12-28T07:41:22;100530.06;;;7.76;75.30
58821;BME280;70670;52.476;13.334;2023-12-28T07:43:47;100533.81;;;7.72;75.64
58821;BME280;70670;52.476;13.334;2023-12-28T07:46:13;100536.53;;;7.71;75.85
58821;BME280;70670;52.476;13.334;2023-12-28T07:48:38;100541.13;;;7.67;76.12
58821;BME280;70670;52.476;13.334;2023-12-28T07:51:04;100549.06;;;7.69;76.19
58821;BME280;70670;52.476;13.334;2023-12-28T07:53:30;100555.97;;;7.73;76.12
58821;BME280;70670;52.476;13.334;2023-12-28T07:55:55;100564.19;;;7.68;76.17
58821;BME280;70670;52.476;13.334;2023-12-28T07:58:21;100555.25;;;7.69;76.26
58821;BME280;70670;52.476;13.334;2023-12-28T08:00:47;100565.84;;;7.71;76.43
58821;BME280;70670;52.476;13.334;2023-12-28T08:03:12;100562.09;;;7.75;76.42
58821;BME280;70670;52.476;13.334;2023-12-28T08:05:41;100561.22;;;7.74;76.27
58821;BME280;70670;52.476;13.334;2023-12-28T08:08:06;100560.06;;;7.80;76.40
58821;BME280;70670;52.476;13.334;2023-12-28T08:10:32;100572.88;;;7.72;76.57
58821;BME280;70670;52.476;13.334;2023-12-28T08:12:57;100580.00;;;7.71;76.64
58821;BME280;70670;52.476;13.334;2023-12-28T08:15:23;100586.94;;;7.75;76.30
58821;BME280;70670;52.476;13.334;2023-12-28T08:17:48;100584.78;;;7.83;76.19
58821;BME280;70670;52.476;13.334;2023-12-28T08:20:14;100576.28;;;7.75;76.07
58821;BME280;70670;52.476;13.334;2023-12-28T08:22:39;100604.72;;;7.75;76.21
58821;BME280;70670;52.476;13.334;2023-12-28T08:25:05;100591.41;;;7.75;76.01
58821;BME280;70670;52.476;13.334;2023-12-28T08:27:30;100592.84;;;7.82;75.53
58821;BME280;70670;52.476;13.334;2023-12-28T08:29:56;100592.97;;;7.79;75.41
58821;BME280;70670;52.476;13.334;2023-12-28T08:32:21;100588.38;;;7.82;75.38
58821;BME280;70670;52.476;13.334;2023-12-28T08:34:47;100587.59;;;7.80;75.42
58821;BME280;70670;52.476;13.334;2023-12-28T08:37:13;100586.66;;;7.81;75.21
58821;BME280;70670;52.476;13.334;2023-12-28T08:39:39;100579.44;;;7.83;75.02
58821;BME280;70670;52.476;13.334;2023-12-28T08:42:04;100592.72;;;7.85;74.89
58821;BME280;70670;52.476;13.334;2023-12-28T08:44:30;100595.59;;;7.80;74.96
58821;BME280;70670;52.476;13.334;2023-12-28T08:46:55;100589.38;;;7.80;75.03
58821;BME280;70670;52.476;13.334;2023-12-28T08:49:21;100602.78;;;7.78;74.85
58821;BME280;70670;52.476;13.334;2023-12-28T08:51:47;100593.06;;;7.77;75.08
58821;BME280;70670;52.476;13.334;2023-12-28T08:54:13;100590.09;;;7.83;74.75
58821;BME280;70670;52.476;13.334;2023-12-28T08:56:39;100592.13;;;7.78;75.02
58821;BME280;70670;52.476;13.334;2023-12-28T08:59:05;100589.59;;;7.75;75.04
58821;BME280;70670;52.476;13.334;2023-12-28T09:01:30;100600.03;;;7.80;75.17
58821;BME280;70670;52.476;13.334;2023-12-28T09:03:55;100599.16;;;7.79;75.15
58821;BME280;70670;52.476;13.334;2023-12-28T09:06:21;100612.50;;;7.79;75.13
58821;BME280;70670;52.476;13.334;2023-12-28T09:08:51;100616.75;;;7.83;74.86
58821;BME280;70670;52.476;13.334;2023-12-28T09:11:17;100619.41;;;7.83;74.79
58821;BME280;70670;52.476;13.334;2023-12-28T09:13:42;100612.22;;;7.85;74.91
58821;BME280;70670;52.476;13.334;2023-12-28T09:16:10;100620.34;;;7.82;75.04
58821;BME280;70670;52.476;13.334;2023-12-28T09:18:36;100624.59;;;7.86;74.79
58821;BME280;70670;52.476;13.334;2023-12-28T09:21:03;100612.22;;;7.85;75.18
58821;BME280;70670;52.476;13.334;2023-12-28T09:23:28;100620.34;;;7.82;75.12
58821;BME280;70670;52.476;13.334;2023-12-28T09:25:54;100620.44;;;7.81;74.87
58821;BME280;70670;52.476;13.334;2023-12-28T09:28:19;100615.88;;;7.83;74.92
58821;BME280;70670;52.476;13.334;2023-12-28T09:30:45;100600.94;;;7.80;74.95
58821;BME280;70670;52.476;13.334;2023-12-28T09:33:10;100617.03;;;7.77;75.20
58821;BME280;70670;52.476;13.334;2023-12-28T09:35:36;100611.72;;;7.77;75.19
58821;BME280;70670;52.476;13.334;2023-12-28T09:38:02;100610.91;;;7.75;75.18
58821;BME280;70670;52.476;13.334;2023-12-28T09:40:27;100608.97;;;7.79;75.23
58821;BME280;70670;52.476;13.334;2023-12-28T09:42:56;100602.06;;;7.75;75.42
58821;BME280;70670;52.476;13.334;2023-12-28T09:45:24;100599.59;;;7.70;75.48
58821;BME280;70670;52.476;13.334;2023-12-28T09:47:50;100613.03;;;7.67;75.74
58821;BME280;70670;52.476;13.334;2023-12-28T09:50:17;100607.72;;;7.67;75.79
58821;BME280;70670;52.476;13.334;2023-12-28T09:52:43;100599.59;;;7.70;75.98
58821;BME280;70670;52.476;13.334;2023-12-28T09:55:08;100597.75;;;7.72;75.74
58821;BME280;70670;52.476;13.334;2023-12-28T09:57:34;100610.91;;;7.75;75.80
58821;BME280;70670;52.476;13.334;2023-12-28T10:00:00;100588.69;;;7.76;75.65
58821;BME280;70670;52.476;13.334;2023-12-28T10:02:26;100605.66;;;7.74;76.05
58821;BME280;70670;52.476;13.334;2023-12-28T10:04:52;100602.91;;;7.75;75.90
58821;BME280;70670;52.476;13.334;2023-12-28T10:07:18;100583.34;;;7.76;75.88
58821;BME280;70670;52.476;13.334;2023-12-28T10:09:43;100581.38;;;7.80;75.83
58821;BME280;70670;52.476;13.334;2023-12-28T10:12:09;100588.25;;;7.85;76.11
58821;BME280;70670;52.476;13.334;2023-12-28T10:14:35;100584.03;;;7.80;76.07
58821;BME280;70670;52.476;13.334;2023-12-28T10:17:01;100598.09;;;7.83;75.98
58821;BME280;70670;52.476;13.334;2023-12-28T10:19:27;100589.19;;;7.84;76.00
58821;BME280;70670;52.476;13.334;2023-12-28T10:21:53;100600.63;;;7.86;75.77
58821;BME280;70670;52.476;13.334;2023-12-28T10:24:18;100604.81;;;7.92;75.56
58821;BME280;70670;52.476;13.334;2023-12-28T10:26:44;100596.88;;;7.91;75.96
58821;BME280;70670;52.476;13.334;2023-12-28T10:29:09;100609.13;;;7.95;75.92
58821;BME280;70670;52.476;13.334;2023-12-28T10:31:35;100610.59;;;8.02;75.67
58821;BME280;70670;52.476;13.334;2023-12-28T10:34:00;100612.31;;;8.03;75.62
58821;BME280;70670;52.476;13.334;2023-12-28T10:36:28;100597.00;;;8.08;75.36
58821;BME280;70670;52.476;13.334;2023-12-28T10:38:53;100600.22;;;8.14;75.40
58821;BME280;70670;52.476;13.334;2023-12-28T10:41:19;100595.47;;;8.21;75.42
58821;BME280;70670;52.476;13.334;2023-12-28T10:43:46;100608.81;;;8.40;74.39
58821;BME280;70670;52.476;13.334;2023-12-28T10:46:14;100600.22;;;8.33;74.38
58821;BME280;70670;52.476;13.334;2023-12-28T10:48:45;100597.69;;;8.49;74.58
58821;BME280;70670;52.476;13.334;2023-12-28T10:51:12;100599.28;;;8.53;74.08
58821;BME280;70670;52.476;13.334;2023-12-28T10:53:45;100589.78;;;8.48;74.02
58821;BME280;70670;52.476;13.334;2023-12-28T10:58:49;100588.81;;;8.68;73.23
58821;BME280;70670;52.476;13.334;2023-12-28T11:01:21;100598.94;;;8.78;72.77
58821;BME280;70670;52.476;13.334;2023-12-28T11:03:50;100585.38;;;9.00;72.23
58821;BME280;70670;52.476;13.334;2023-12-28T11:06:18;100584.38;;;9.03;71.93
58821;BME280;70670;52.476;13.334;2023-12-28T11:08:43;100611.06;;;9.20;71.23
58821;BME280;70670;52.476;13.334;2023-12-28T11:11:13;100590.09;;;9.47;70.07
58821;BME280;70670;52.476;13.334;2023-12-28T11:13:40;100591.09;;;9.45;69.49
58821;BME280;70670;52.476;13.334;2023-12-28T11:16:06;100584.94;;;9.27;70.69
58821;BME280;70670;52.476;13.334;2023-12-28T11:18:32;100602.03;;;9.23;70.69
58821;BME280;70670;52.476;13.334;2023-12-28T11:20:57;100615.06;;;9.11;71.02
58821;BME280;70670;52.476;13.334;2023-12-28T11:23:24;100600.06;;;8.92;71.66
58821;BME280;70670;52.476;13.334;2023-12-28T11:25:49;100582.63;;;9.02;71.31
58821;BME280;70670;52.476;13.334;2023-12-28T11:28:15;100580.75;;;9.04;71.45
58821;BME280;70670;52.476;13.334;2023-12-28T11:30:43;100606.47;;;9.57;69.08
58821;BME280;70670;52.476;13.334;2023-12-28T11:33:09;100578.44;;;9.81;67.81
58821;BME280;70670;52.476;13.334;2023-12-28T11:35:35;100572.94;;;9.84;67.85
58821;BME280;70670;52.476;13.334;2023-12-28T11:38:02;100570.66;;;9.77;68.06
58821;BME280;70670;52.476;13.334;2023-12-28T11:40:32;100593.19;;;9.89;67.12
58821;BME280;70670;52.476;13.334;2023-12-28T11:43:04;100567.50;;;9.70;68.14
58821;BME280;70670;52.476;13.334;2023-12-28T11:45:41;100566.47;;;9.89;67.41
58821;BME280;70670;52.476;13.334;2023-12-28T11:48:11;100570.03;;;10.05;66.13
58821;BME280;70670;52.476;13.334;2023-12-28T11:50:47;100567.03;;;10.11;66.13
58821;BME280;70670;52.476;13.334;2023-12-28T11:53:12;100567.63;;;10.16;65.92
58821;BME280;70670;52.476;13.334;2023-12-28T11:55:38;100568.75;;;10.12;66.28
58821;BME280;70670;52.476;13.334;2023-12-28T11:58:03;100551.69;;;10.30;65.53
58821;BME280;70670;52.476;13.334;2023-12-28T12:00:29;100537.69;;;10.25;65.42
58821;BME280;70670;52.476;13.334;2023-12-28T12:02:54;100534.16;;;10.41;65.78
58821;BME280;70670;52.476;13.334;2023-12-28T12:05:22;100519.59;;;10.46;64.96
58821;BME280;70670;52.476;13.334;2023-12-28T12:07:48;100527.63;;;10.30;65.46
58821;BME280;70670;52.476;13.334;2023-12-28T12:10:14;100514.09;;;10.33;65.12
58821;BME280;70670;52.476;13.334;2023-12-28T12:12:40;100513.00;;;10.52;64.57
58821;BME280;70670;52.476;13.334;2023-12-28T12:15:06;100514.31;;;10.45;65.18
58821;BME280;70670;52.476;13.334;2023-12-28T12:17:32;100532.78;;;10.49;64.50
58821;BME280;70670;52.476;13.334;2023-12-28T12:19:58;100524.50;;;10.54;64.51
58821;BME280;70670;52.476;13.334;2023-12-28T12:22:23;100507.81;;;10.49;64.67
58821;BME280;70670;52.476;13.334;2023-12-28T12:24:49;100513.00;;;10.52;64.82
58821;BME280;70670;52.476;13.334;2023-12-28T12:27:16;100512.69;;;10.72;63.89
58821;BME280;70670;52.476;13.334;2023-12-28T12:29:42;100524.25;;;10.73;64.07
58821;BME280;70670;52.476;13.334;2023-12-28T12:32:07;100512.53;;;10.75;63.84
58821;BME280;70670;52.476;13.334;2023-12-28T12:34:33;100525.72;;;10.78;63.72
58821;BME280;70670;52.476;13.334;2023-12-28T12:36:59;100528.25;;;10.96;63.29
58821;BME280;70670;52.476;13.334;2023-12-28T12:39:25;100541.78;;;10.78;63.79
58821;BME280;70670;52.476;13.334;2023-12-28T12:41:51;100514.50;;;11.02;63.17
58821;BME280;70670;52.476;13.334;2023-12-28T12:44:19;100513.38;;;10.76;64.19
58821;BME280;70670;52.476;13.334;2023-12-28T12:46:44;100522.38;;;10.75;63.98